Terminal Aerodrome Forecast
Issued by NWS Shreveport, LA

Home | Current Version | Previous Version | Text Only | Print | Product List | Glossary On
Versions: 1 2 3 4 5 6 7 8 9 10 11 12 13
000
FTUS44 KSHV 022344
TAFLFK
TAF
KLFK 022344Z 0300/0324 10011KT P6SM BKN100
     FM030100 09009KT P6SM -RA OVC050
     FM030400 08009KT 5SM RA BR OVC035
     FM031200 09011KT 4SM RA BR OVC009
     FM031500 07012KT 4SM -RA BR OVC007
     FM031800 08013KT 1 1/2SM -RA BR OVC004=

USA.gov is the U.S. government's official web portal to all federal, state and local government web resources and services.